Time;durP1;ratioP1;P1;durP2;ratioP2;P2;SDS_P1;SDS_P2;PMS_P1;PMS_P2;Temp;Humidity;BMP_temperature;BMP_pressure;BME280_temperature;BME280_humidity;BME280_pressure;Samples;Min_cycle;Max_cycle;Signal;HPM_P1;HPM_P2
2023/01/31 00:09:12;;;;;;;8.60;4.40;;;;;;;0.74;100.00;98412.02;450379;1251;141983;-61
2023/01/31 00:19:18;;;;;;;8.40;5.20;;;;;;;0.75;100.00;98425.08;444561;1250;147647;-61
2023/01/31 00:29:24;;;;;;;6.20;3.90;;;;;;;0.74;100.00;98437.30;440634;1251;141769;-61
2023/01/31 00:39:30;;;;;;;9.80;4.90;;;;;;;0.72;100.00;98442.58;448080;1250;141761;-61
2023/01/31 00:49:36;;;;;;;11.30;5.10;;;;;;;0.68;100.00;98460.28;450497;1250;145167;-61
2023/01/31 00:59:42;;;;;;;18.80;5.40;;;;;;;0.67;100.00;98474.12;450459;1250;141902;-61
2023/01/31 01:09:48;;;;;;;8.50;4.20;;;;;;;0.63;100.00;98484.79;449653;1250;142093;-61
2023/01/31 01:19:54;;;;;;;6.40;3.50;;;;;;;0.61;100.00;98491.76;450438;1251;142136;-60
2023/01/31 01:30:00;;;;;;;7.70;3.50;;;;;;;0.65;100.00;98502.30;442765;1251;142128;-59
2023/01/31 01:40:08;;;;;;;9.20;3.30;;;;;;;0.67;100.00;98507.54;449663;1250;142209;-59
2023/01/31 01:50:19;;;;;;;6.50;4.10;;;;;;;0.65;100.00;98515.54;450467;1250;142491;-60
2023/01/31 02:00:28;;;;;;;7.70;3.30;;;;;;;0.61;100.00;98522.43;449747;1252;142398;-60
2023/01/31 02:10:39;;;;;;;10.10;3.80;;;;;;;0.66;100.00;98541.36;450494;1250;143153;-60
2023/01/31 02:21:15;;;;;;;10.50;3.30;;;;;;;0.73;100.00;98545.24;450508;1250;143077;-60
2023/01/31 02:31:52;;;;;;;7.30;3.60;;;;;;;0.75;100.00;98559.24;449616;1251;142973;-60
2023/01/31 02:42:07;;;;;;;9.10;4.00;;;;;;;0.78;100.00;98572.73;450428;1252;142080;-60
2023/01/31 02:52:20;;;;;;;6.50;2.90;;;;;;;0.80;100.00;98588.51;449791;1250;142050;-60
2023/01/31 03:02:28;;;;;;;13.80;3.10;;;;;;;0.80;100.00;98597.13;450461;1252;142177;-60
2023/01/31 03:12:44;;;;;;;10.90;3.30;;;;;;;0.79;100.00;98614.41;449716;1251;143240;-60
2023/01/31 03:22:54;;;;;;;13.20;4.30;;;;;;;0.79;100.00;98638.67;450453;1250;141746;-60
2023/01/31 03:33:06;;;;;;;6.90;2.40;;;;;;;0.80;100.00;98651.22;450380;1250;142341;-60
2023/01/31 03:43:20;;;;;;;9.80;2.30;;;;;;;0.79;100.00;98670.05;449619;1250;143873;-60
2023/01/31 03:53:32;;;;;;;13.90;2.70;;;;;;;0.78;100.00;98691.09;450454;1251;142492;-61
2023/01/31 04:03:42;;;;;;;7.70;2.40;;;;;;;0.79;100.00;98709.00;449801;1250;143021;-60
2023/01/31 04:13:47;;;;;;;10.00;2.90;;;;;;;0.78;100.00;98720.92;447210;1250;141630;-59
2023/01/31 04:23:53;;;;;;;9.30;2.60;;;;;;;0.77;100.00;98743.02;450395;1250;143322;-60
2023/01/31 04:33:59;;;;;;;7.20;2.30;;;;;;;0.76;100.00;98754.27;448518;1250;142088;-60
2023/01/31 04:44:05;;;;;;;5.00;1.70;;;;;;;0.73;100.00;98760.36;450478;1252;141949;-60
2023/01/31 04:54:11;;;;;;;8.70;2.40;;;;;;;0.73;100.00;98769.69;447427;1250;144249;-60
2023/01/31 05:04:17;;;;;;;8.10;2.40;;;;;;;0.72;100.00;98780.09;449665;1250;143182;-60
2023/01/31 05:14:23;;;;;;;11.00;3.10;;;;;;;0.68;100.00;98798.60;450508;1250;142191;-61
2023/01/31 05:24:30;;;;;;;7.90;2.20;;;;;;;0.69;100.00;98817.55;445982;1251;142166;-60
2023/01/31 05:34:37;;;;;;;5.10;2.80;;;;;;;0.69;100.00;98836.33;450373;1250;141740;-60
2023/01/31 05:44:43;;;;;;;15.30;3.30;;;;;;;0.68;100.00;98857.39;450526;1250;143532;-60
2023/01/31 05:54:48;;;;;;;7.70;2.10;;;;;;;0.65;100.00;98875.72;449739;1250;144162;-61
2023/01/31 06:04:54;;;;;;;10.20;3.30;;;;;;;0.63;100.00;98893.89;445926;1250;141710;-61
2023/01/31 06:15:00;;;;;;;7.50;2.10;;;;;;;0.60;100.00;98916.04;448125;1250;142568;-60
2023/01/31 06:25:07;;;;;;;8.60;3.30;;;;;;;0.59;100.00;98937.11;449691;1251;142230;-61
2023/01/31 06:35:13;;;;;;;7.20;2.20;;;;;;;0.59;100.00;98958.45;444178;1251;187330;-60
2023/01/31 06:45:20;;;;;;;9.30;3.10;;;;;;;0.61;100.00;98976.14;440292;1253;145201;-61
2023/01/31 06:55:25;;;;;;;;;;;;;;;0.60;99.98;98978.58;438732;1254;211929;-59
2023/01/31 07:05:31;;;;;;;13.50;3.90;;;;;;;0.68;99.86;98979.52;434549;1251;129904;-60
2023/01/31 07:15:36;;;;;;;9.20;3.00;;;;;;;0.73;99.52;98977.13;439021;1251;143728;-59
2023/01/31 07:25:42;;;;;;;12.20;3.60;;;;;;;0.84;99.33;98993.48;435154;1253;141207;-62
2023/01/31 07:35:48;;;;;;;9.70;3.70;;;;;;;1.40;99.06;99000.17;436376;1255;140615;-61
2023/01/31 07:45:55;;;;;;;10.10;2.80;;;;;;;1.59;97.98;99012.77;433465;1252;147031;-61
2023/01/31 07:56:10;;;;;;;6.80;2.50;;;;;;;1.63;97.18;99023.30;434660;1255;142380;-61
2023/01/31 08:06:16;;;;;;;7.70;2.50;;;;;;;1.81;96.47;99032.34;436859;1253;141962;-66
2023/01/31 08:16:22;;;;;;;10.00;3.70;;;;;;;1.81;95.63;99036.12;434185;1252;141394;-60
2023/01/31 08:26:28;;;;;;;7.50;2.80;;;;;;;2.07;95.01;99054.70;435481;1254;148119;-60
2023/01/31 08:36:35;;;;;;;15.70;6.60;;;;;;;1.87;93.74;99071.98;432797;1256;142149;-59
2023/01/31 08:46:41;;;;;;;7.80;3.00;;;;;;;1.76;93.71;99084.45;435759;1250;142726;-59
2023/01/31 08:56:47;;;;;;;11.80;3.80;;;;;;;1.66;93.64;99090.69;440221;1254;141421;-59
2023/01/31 09:06:54;;;;;;;8.80;2.50;;;;;;;1.69;92.80;99087.47;433720;1251;141526;-60
2023/01/31 09:16:58;;;;;;;;;;;;;;;1.68;92.22;99101.48;437046;1251;141125;-58
2023/01/31 09:27:04;;;;;;;5.10;2.70;;;;;;;1.74;91.95;99114.07;433754;1255;128704;-60
2023/01/31 09:37:10;;;;;;;9.80;3.40;;;;;;;1.82;90.87;99128.61;437284;1253;141686;-60
2023/01/31 09:47:27;;;;;;;3.70;2.10;;;;;;;2.17;90.19;99130.98;434853;1254;141191;-60
2023/01/31 09:57:44;;;;;;;4.30;1.90;;;;;;;2.37;88.04;99150.66;433985;1255;145009;-60
2023/01/31 10:07:57;;;;;;;4.20;2.80;;;;;;;2.36;87.01;99151.70;436660;1250;141553;-59
2023/01/31 10:18:10;;;;;;;10.30;3.00;;;;;;;2.28;86.71;99161.69;436512;1250;142621;-58
2023/01/31 10:28:19;;;;;;;6.70;3.00;;;;;;;2.29;86.67;99156.29;433523;1253;142760;-60
2023/01/31 10:38:31;;;;;;;5.00;2.80;;;;;;;2.16;85.85;99154.33;435055;1255;144246;-59
2023/01/31 10:48:37;;;;;;;8.90;3.40;;;;;;;2.00;86.60;99159.92;437090;1250;142112;-60
2023/01/31 10:58:43;;;;;;;13.20;3.50;;;;;;;1.83;87.98;99151.17;437433;1250;142942;-59
2023/01/31 11:08:51;;;;;;;6.20;2.70;;;;;;;1.75;87.16;99149.55;436768;1254;140922;-59
2023/01/31 11:18:59;;;;;;;7.40;3.00;;;;;;;1.80;87.03;99151.61;436183;1250;141452;-63
2023/01/31 11:29:17;;;;;;;8.80;3.10;;;;;;;1.97;87.14;99141.88;434872;1255;141768;-60
2023/01/31 11:39:32;;;;;;;11.30;4.00;;;;;;;2.06;86.60;99132.58;434180;1255;141729;-60
2023/01/31 11:49:40;;;;;;;10.80;3.60;;;;;;;2.15;86.73;99116.56;437228;1254;209546;-60
2023/01/31 11:59:48;;;;;;;7.90;3.00;;;;;;;2.17;86.31;99107.34;434524;1250;142368;-59
2023/01/31 12:09:54;;;;;;;7.10;2.50;;;;;;;2.13;86.03;99090.73;438645;1254;142141;-60
2023/01/31 12:20:11;;;;;;;6.20;2.50;;;;;;;1.98;85.17;99079.88;433959;1256;142030;-60
2023/01/31 12:31:02;;;;;;;4.50;2.00;;;;;;;1.89;85.23;99088.33;435229;1254;142590;-59
2023/01/31 12:41:20;;;;;;;6.40;2.50;;;;;;;1.92;84.90;99071.48;434420;1253;142742;-59
2023/01/31 12:51:39;;;;;;;5.30;2.50;;;;;;;2.05;84.71;99068.73;433674;1254;141559;-58
2023/01/31 13:01:50;;;;;;;4.10;2.30;;;;;;;2.14;83.86;99068.77;441657;1250;141512;-60
2023/01/31 13:11:59;;;;;;;3.70;2.30;;;;;;;2.04;83.32;99054.80;438287;1254;141220;-60
2023/01/31 13:22:13;;;;;;;6.30;2.20;;;;;;;1.98;83.67;99043.98;437397;1254;140690;-60
2023/01/31 13:32:25;;;;;;;6.40;1.50;;;;;;;1.93;83.79;99044.17;435815;1254;144019;-59
2023/01/31 13:42:32;;;;;;;9.20;3.10;;;;;;;1.80;84.51;99040.32;435426;1251;141505;-59
2023/01/31 13:52:45;;;;;;;8.80;3.60;;;;;;;1.75;85.04;99020.64;435582;1254;145306;-59
2023/01/31 14:03:04;;;;;;;5.40;2.80;;;;;;;1.77;85.51;99008.16;434012;1251;143899;-60
2023/01/31 14:13:37;;;;;;;4.50;2.10;;;;;;;1.75;85.72;99002.86;444554;1251;144223;-59
2023/01/31 14:23:49;;;;;;;8.40;3.10;;;;;;;1.64;85.97;98993.45;447621;1251;141742;-60
2023/01/31 14:33:56;;;;;;;7.60;3.20;;;;;;;1.62;86.29;98985.95;436037;1251;142279;-61
2023/01/31 14:44:17;;;;;;;6.60;2.40;;;;;;;1.50;86.33;98974.45;436902;1251;146108;-60
2023/01/31 14:54:46;;;;;;;5.30;2.30;;;;;;;1.31;86.69;98966.34;434744;1251;141699;-60
2023/01/31 15:05:00;;;;;;;8.50;2.70;;;;;;;1.21;87.30;98962.20;435982;1254;211044;-60
2023/01/31 15:15:21;;;;;;;9.10;3.40;;;;;;;1.12;87.93;98953.91;436689;1251;142073;-60
2023/01/31 15:25:33;;;;;;;7.20;4.40;;;;;;;1.05;88.40;98953.45;433729;1254;141246;-60
2023/01/31 15:35:49;;;;;;;7.30;5.00;;;;;;;0.97;89.18;98952.36;434490;1251;141873;-60
2023/01/31 15:45:55;;;;;;;12.90;6.30;;;;;;;0.91;89.98;98949.29;435883;1251;142753;-60
2023/01/31 15:56:03;;;;;;;12.70;4.80;;;;;;;0.87;90.63;98944.94;437330;1254;141595;-59
2023/01/31 16:06:21;;;;;;;11.90;5.60;;;;;;;0.87;91.20;98948.23;436416;1251;141301;-59
2023/01/31 16:16:29;;;;;;;15.30;8.10;;;;;;;0.83;92.05;98943.02;434304;1251;212900;-60
2023/01/31 16:26:38;;;;;;;11.50;6.80;;;;;;;0.68;93.21;98931.81;435189;1251;142471;-60
2023/01/31 16:36:58;;;;;;;14.60;8.80;;;;;;;0.46;94.10;98934.58;435854;1250;187769;-61
2023/01/31 16:47:04;;;;;;;20.80;11.50;;;;;;;0.25;94.97;98922.37;438228;1250;145411;-60
2023/01/31 16:57:24;;;;;;;23.20;13.70;;;;;;;0.06;95.89;98917.95;434057;1254;141602;-60
2023/01/31 17:07:33;;;;;;;18.80;15.60;;;;;;;-0.06;96.77;98908.54;437056;1250;211350;-61
2023/01/31 17:17:39;;;;;;;26.80;15.70;;;;;;;-0.09;97.35;98901.08;450729;1250;142741;-59
2023/01/31 17:27:45;;;;;;;21.40;13.20;;;;;;;-0.08;97.85;98882.11;450052;1250;143274;-60
2023/01/31 17:37:51;;;;;;;14.80;11.30;;;;;;;-0.06;98.42;98857.78;450812;1250;141810;-60
2023/01/31 17:47:57;;;;;;;19.50;11.60;;;;;;;-0.07;98.96;98839.23;450531;1250;144418;-62
2023/01/31 17:58:03;;;;;;;10.90;7.60;;;;;;;-0.08;99.48;98828.44;449780;1250;142629;-60
2023/01/31 18:08:09;;;;;;;12.20;8.70;;;;;;;-0.07;99.89;98805.83;450565;1250;141447;-60
2023/01/31 18:18:15;;;;;;;21.80;13.30;;;;;;;-0.04;100.00;98785.28;441726;1250;143276;-59
2023/01/31 18:28:21;;;;;;;17.20;9.70;;;;;;;-0.08;100.00;98760.13;450067;1250;142416;-59
2023/01/31 18:38:28;;;;;;;14.70;10.40;;;;;;;-0.18;100.00;98740.30;450809;1250;143536;-59
2023/01/31 18:48:36;;;;;;;60.80;25.70;;;;;;;-0.25;100.00;98720.23;450082;1250;143104;-59
2023/01/31 18:58:43;;;;;;;16.00;10.30;;;;;;;-0.22;100.00;98713.95;446717;1249;143143;-59
2023/01/31 19:08:51;;;;;;;45.50;20.20;;;;;;;-0.18;100.00;98702.13;448732;1250;143073;-60
2023/01/31 19:18:58;;;;;;;14.10;9.60;;;;;;;-0.13;100.00;98689.92;448893;1250;146441;-60
2023/01/31 19:29:05;;;;;;;17.40;11.60;;;;;;;-0.07;100.00;98676.27;450652;1250;142306;-59
2023/01/31 19:39:14;;;;;;;25.10;13.20;;;;;;;0.03;100.00;98657.85;450598;1250;142218;-60
2023/01/31 19:49:21;;;;;;;20.90;12.40;;;;;;;0.11;100.00;98628.84;449871;1250;142093;-59
2023/01/31 19:59:26;;;;;;;29.60;15.00;;;;;;;0.14;100.00;98593.08;446759;1250;143557;-60
2023/01/31 20:09:32;;;;;;;12.00;8.30;;;;;;;0.14;100.00;98579.86;449788;1250;145188;-59
2023/01/31 20:19:39;;;;;;;12.30;9.60;;;;;;;0.09;100.00;98574.19;450639;1250;142391;-61
2023/01/31 20:29:43;;;;;;;;;;;;;;;0.01;100.00;98569.32;450627;1250;141268;-58
2023/01/31 20:39:49;;;;;;;8.90;6.50;;;;;;;-0.14;100.00;98556.08;435522;1251;129615;-59
2023/01/31 20:49:55;;;;;;;14.60;9.20;;;;;;;-0.28;100.00;98535.98;433859;1254;142450;-59
2023/01/31 21:00:03;;;;;;;10.70;8.70;;;;;;;-0.35;100.00;98516.27;443417;1250;142627;-59
2023/01/31 21:10:12;;;;;;;7.80;5.60;;;;;;;-0.28;100.00;98528.05;449770;1250;144208;-59
2023/01/31 21:20:18;;;;;;;9.70;8.60;;;;;;;-0.19;100.00;98523.75;450658;1250;144293;-60
2023/01/31 21:30:25;;;;;;;16.80;11.70;;;;;;;-0.00;100.00;98517.23;446219;1250;142631;-59
2023/01/31 21:40:29;;;;;;;;;;;;;;;0.17;100.00;98498.52;450137;1250;197947;-60
2023/01/31 21:50:35;;;;;;;10.50;8.50;;;;;;;0.31;100.00;98478.65;450688;1250;170750;-59
2023/01/31 22:00:42;;;;;;;10.60;7.90;;;;;;;0.48;100.00;98458.21;449737;1250;142607;-59
2023/01/31 22:10:48;;;;;;;11.20;7.70;;;;;;;0.63;100.00;98441.22;450551;1250;198835;-59
2023/01/31 22:20:59;;;;;;;8.40;6.70;;;;;;;0.78;100.00;98428.89;445722;1249;142461;-63
2023/01/31 22:31:07;;;;;;;9.20;6.80;;;;;;;0.93;100.00;98411.91;449732;1250;141914;-63
2023/01/31 22:41:15;;;;;;;6.60;5.80;;;;;;;1.14;100.00;98397.34;450595;1250;142477;-63
2023/01/31 22:51:26;;;;;;;6.60;4.90;;;;;;;1.33;100.00;98389.81;450630;1250;143091;-63
2023/01/31 23:01:34;;;;;;;6.40;5.10;;;;;;;1.55;100.00;98386.57;450131;1249;209966;-63
2023/01/31 23:11:40;;;;;;;5.60;4.90;;;;;;;1.71;100.00;98392.53;450628;1249;141946;-63
2023/01/31 23:21:47;;;;;;;5.60;3.70;;;;;;;1.74;100.00;98396.89;449782;1250;143454;-65
2023/01/31 23:31:53;;;;;;;4.70;3.40;;;;;;;1.60;100.00;98414.61;447068;1250;200049;-63
2023/01/31 23:41:59;;;;;;;3.90;2.20;;;;;;;1.35;100.00;98387.45;442190;1250;141732;-63
2023/01/31 23:52:06;;;;;;;3.40;1.50;;;;;;;1.24;100.00;98372.77;449252;1250;143134;-64
